PWSweather.com
Personal Weather Stations
Station Observations
WESTON01
WestonSuperMareGB BS22 8RT

WestonSuperMareGB BS22 8RT

Lat: 51.351508, Lon: -2.933373

Elevation: 15

Station Type: Fine Offset WH1080

http://www.westonweather.co.uk

High Low Average
Temperature 71.3°F21.8°C 63.0°F17.2°C 65.6°F18.7°C
Dew Point 65.7°F18.7°C 58.3°F14.6°C 61.5°F16.4°C
Winds 11.0 mph 17.7 kmh 0.1 mph 0.2 kmh 5.0 mph W8.0 kmh W
Wind Gusts 20.2 mph32.5 kmh 1.2 mph1.9 kmh 9.0 mph14.5 kmh
Humidity 93% 77% 87%
Pressure 30.11 in1019.6 mb 30.08 in1018.6 mb -
Precipitation 0.04 in1.0 mm - -
Hour Temp Dew Point Humidity Winds Wind Gusts Pressure Precip Precip Rate Daily Precip Total
12:00 AM 63.0°F17.2°C 60.1°F15.6°C 90% 3.9 mph WNW6.3 kmh WNW 7.1 mph11.4 kmh 30.08 in1018.6 mb 0.00 in0.0 mm 0.00 in0.0 mm 0.00 in0.0 mm
12:05 AM 63.0°F17.2°C 60.1°F15.6°C 90% 3.4 mph NW5.5 kmh NW 7.1 mph11.4 kmh 30.11 in1019.6 mb 0.00 in0.0 mm 0.00 in0.0 mm 0.00 in0.0 mm
12:10 AM 63.0°F17.2°C 60.1°F15.6°C 90% 3.7 mph NW6.0 kmh NW 7.7 mph12.4 kmh 30.11 in1019.6 mb 0.00 in0.0 mm 0.00 in0.0 mm 0.00 in0.0 mm
12:15 AM 63.0°F17.2°C 60.1°F15.6°C 90% 4.0 mph WNW6.4 kmh WNW 7.7 mph12.4 kmh 30.11 in1019.6 mb 0.00 in0.0 mm 0.00 in0.0 mm 0.00 in0.0 mm
12:20 AM 63.0°F17.2°C 60.1°F15.6°C 90% 2.8 mph NW4.5 kmh NW 5.4 mph8.7 kmh 30.08 in1018.6 mb 0.00 in0.0 mm 0.00 in0.0 mm 0.00 in0.0 mm
12:25 AM 63.0°F17.2°C 60.1°F15.6°C 90% 2.5 mph NW4.0 kmh NW 5.1 mph8.2 kmh 30.08 in1018.6 mb 0.00 in0.0 mm 0.00 in0.0 mm 0.00 in0.0 mm
12:30 AM 63.2°F17.3°C 60.2°F15.7°C 90% 2.4 mph WNW3.9 kmh WNW 5.7 mph9.2 kmh 30.08 in1018.6 mb 0.00 in0.0 mm 0.00 in0.0 mm 0.00 in0.0 mm
12:35 AM 63.2°F17.3°C 60.2°F15.7°C 90% 1.6 mph WNW2.6 kmh WNW 5.7 mph9.2 kmh 30.11 in1019.6 mb 0.00 in0.0 mm 0.00 in0.0 mm 0.00 in0.0 mm
12:40 AM 63.2°F17.3°C 60.2°F15.7°C 90% 1.5 mph NW2.4 kmh NW 3.6 mph5.8 kmh 30.11 in1019.6 mb 0.00 in0.0 mm 0.00 in0.0 mm 0.00 in0.0 mm
12:45 AM 63.2°F17.3°C 60.2°F15.7°C 90% 1.2 mph NW1.9 kmh NW 3.6 mph5.8 kmh 30.11 in1019.6 mb 0.00 in0.0 mm 0.00 in0.0 mm 0.00 in0.0 mm
12:50 AM 63.2°F17.3°C 60.2°F15.7°C 90% 0.5 mph WNW0.8 kmh WNW 3.6 mph5.8 kmh 30.08 in1018.6 mb 0.00 in0.0 mm 0.00 in0.0 mm 0.00 in0.0 mm
12:55 AM 63.2°F17.3°C 60.2°F15.7°C 90% 0.1 mph W0.2 kmh W 1.2 mph1.9 kmh 30.08 in1018.6 mb 0.00 in0.0 mm 0.00 in0.0 mm 0.00 in0.0 mm
01:00 AM 63.2°F17.3°C 60.2°F15.7°C 90% 0.9 mph W1.4 kmh W 2.1 mph3.4 kmh 30.08 in1018.6 mb 0.00 in0.0 mm 0.00 in0.0 mm 0.00 in0.0 mm
01:05 AM 63.2°F17.3°C 60.2°F15.7°C 90% 1.0 mph W1.6 kmh W 2.1 mph3.4 kmh 30.08 in1018.6 mb 0.00 in0.0 mm 0.00 in0.0 mm 0.00 in0.0 mm
01:10 AM 63.4°F17.4°C 60.4°F15.8°C 90% 2.1 mph W3.4 kmh W 5.1 mph8.2 kmh 30.08 in1018.6 mb 0.00 in0.0 mm 0.00 in0.0 mm 0.00 in0.0 mm
01:15 AM 63.4°F17.4°C 60.4°F15.8°C 90% 3.3 mph W5.3 kmh W 5.1 mph8.2 kmh 30.08 in1018.6 mb 0.00 in0.0 mm 0.00 in0.0 mm 0.00 in0.0 mm
01:20 AM 63.4°F17.4°C 60.4°F15.8°C 90% 2.4 mph WNW3.9 kmh WNW 3.9 mph6.3 kmh 30.08 in1018.6 mb 0.00 in0.0 mm 0.00 in0.0 mm 0.00 in0.0 mm
01:25 AM 63.4°F17.4°C 60.4°F15.8°C 90% 2.0 mph W3.2 kmh W 3.6 mph5.8 kmh 30.08 in1018.6 mb 0.00 in0.0 mm 0.00 in0.0 mm 0.00 in0.0 mm
01:30 AM 63.6°F17.6°C 60.6°F15.9°C 90% 1.5 mph W2.4 kmh W 3.6 mph5.8 kmh 30.08 in1018.6 mb 0.00 in0.0 mm 0.00 in0.0 mm 0.00 in0.0 mm
01:35 AM 63.6°F17.6°C 60.6°F15.9°C 90% 0.6 mph WSW1.0 kmh WSW 3.9 mph6.3 kmh 30.08 in1018.6 mb 0.00 in0.0 mm 0.00 in0.0 mm 0.00 in0.0 mm
01:40 AM 63.6°F17.6°C 60.6°F15.9°C 90% 0.8 mph W1.3 kmh W 3.9 mph6.3 kmh 30.08 in1018.6 mb 0.00 in0.0 mm 0.00 in0.0 mm 0.00 in0.0 mm
01:45 AM 63.6°F17.6°C 60.6°F15.9°C 90% 1.9 mph W3.1 kmh W 4.5 mph7.2 kmh 30.08 in1018.6 mb 0.00 in0.0 mm 0.00 in0.0 mm 0.00 in0.0 mm
01:50 AM 63.6°F17.6°C 60.6°F15.9°C 90% 3.1 mph W5.0 kmh W 7.1 mph11.4 kmh 30.08 in1018.6 mb 0.00 in0.0 mm 0.00 in0.0 mm 0.00 in0.0 mm
01:55 AM 63.8°F17.7°C 60.8°F16.0°C 90% 3.6 mph WNW5.8 kmh WNW 7.1 mph11.4 kmh 30.08 in1018.6 mb 0.00 in0.0 mm 0.00 in0.0 mm 0.00 in0.0 mm
02:00 AM 63.8°F17.7°C 60.8°F16.0°C 90% 4.4 mph NW7.1 kmh NW 7.1 mph11.4 kmh 30.08 in1018.6 mb 0.00 in0.0 mm 0.00 in0.0 mm 0.00 in0.0 mm
02:05 AM 63.8°F17.7°C 60.8°F16.0°C 90% 5.1 mph NW8.2 kmh NW 7.4 mph11.9 kmh 30.08 in1018.6 mb 0.00 in0.0 mm 0.00 in0.0 mm 0.00 in0.0 mm
02:10 AM 63.8°F17.7°C 60.8°F16.0°C 90% 5.5 mph NW8.9 kmh NW 8.0 mph12.9 kmh 30.08 in1018.6 mb 0.00 in0.0 mm 0.00 in0.0 mm 0.00 in0.0 mm
02:15 AM 63.6°F17.6°C 60.6°F15.9°C 90% 5.5 mph WNW8.9 kmh WNW 8.0 mph12.9 kmh 30.08 in1018.6 mb 0.00 in0.0 mm 0.00 in0.0 mm 0.00 in0.0 mm
02:20 AM 63.6°F17.6°C 60.6°F15.9°C 90% 4.6 mph W7.4 kmh W 7.7 mph12.4 kmh 30.08 in1018.6 mb 0.00 in0.0 mm 0.00 in0.0 mm 0.00 in0.0 mm
02:25 AM 63.6°F17.6°C 60.6°F15.9°C 90% 4.7 mph WNW7.6 kmh WNW 8.0 mph12.9 kmh 30.08 in1018.6 mb 0.00 in0.0 mm 0.00 in0.0 mm 0.00 in0.0 mm
02:30 AM 63.6°F17.6°C 60.6°F15.9°C 90% 5.0 mph WNW8.0 kmh WNW 8.0 mph12.9 kmh 30.08 in1018.6 mb 0.00 in0.0 mm 0.00 in0.0 mm 0.00 in0.0 mm
02:35 AM 63.6°F17.6°C 60.6°F15.9°C 90% 4.4 mph WNW7.1 kmh WNW 8.0 mph12.9 kmh 30.08 in1018.6 mb 0.00 in0.0 mm 0.00 in0.0 mm 0.00 in0.0 mm
02:40 AM 63.6°F17.6°C 60.6°F15.9°C 90% 4.4 mph WNW7.1 kmh WNW 7.1 mph11.4 kmh 30.08 in1018.6 mb 0.00 in0.0 mm 0.00 in0.0 mm 0.00 in0.0 mm
02:45 AM 63.6°F17.6°C 60.6°F15.9°C 90% 4.4 mph WNW7.1 kmh WNW 8.0 mph12.9 kmh 30.08 in1018.6 mb 0.00 in0.0 mm 0.00 in0.0 mm 0.00 in0.0 mm
02:50 AM 63.6°F17.6°C 60.6°F15.9°C 90% 4.7 mph NW7.6 kmh NW 8.0 mph12.9 kmh 30.08 in1018.6 mb 0.00 in0.0 mm 0.00 in0.0 mm 0.00 in0.0 mm
02:55 AM 63.6°F17.6°C 60.6°F15.9°C 90% 5.1 mph NW8.2 kmh NW 8.3 mph13.4 kmh 30.08 in1018.6 mb 0.00 in0.0 mm 0.00 in0.0 mm 0.00 in0.0 mm
03:00 AM 63.6°F17.6°C 60.6°F15.9°C 90% 4.7 mph WNW7.6 kmh WNW 8.3 mph13.4 kmh 30.08 in1018.6 mb 0.00 in0.0 mm 0.00 in0.0 mm 0.00 in0.0 mm
03:05 AM 63.6°F17.6°C 60.6°F15.9°C 90% 5.1 mph W8.2 kmh W 8.9 mph14.3 kmh 30.08 in1018.6 mb 0.00 in0.0 mm 0.00 in0.0 mm 0.00 in0.0 mm
03:10 AM 63.4°F17.4°C 60.4°F15.8°C 90% 5.5 mph W8.9 kmh W 8.9 mph14.3 kmh 30.08 in1018.6 mb 0.00 in0.0 mm 0.00 in0.0 mm 0.00 in0.0 mm
03:15 AM 63.4°F17.4°C 60.4°F15.8°C 90% 4.6 mph WNW7.4 kmh WNW 7.7 mph12.4 kmh 30.08 in1018.6 mb 0.00 in0.0 mm 0.00 in0.0 mm 0.00 in0.0 mm
03:20 AM 63.4°F17.4°C 60.4°F15.8°C 90% 4.2 mph NW6.8 kmh NW 7.7 mph12.4 kmh 30.08 in1018.6 mb 0.00 in0.0 mm 0.00 in0.0 mm 0.00 in0.0 mm
03:25 AM 63.2°F17.3°C 60.2°F15.7°C 90% 4.9 mph NW7.9 kmh NW 7.4 mph11.9 kmh 30.08 in1018.6 mb 0.00 in0.0 mm 0.00 in0.0 mm 0.00 in0.0 mm
03:30 AM 63.2°F17.3°C 60.6°F15.9°C 91% 4.7 mph NW7.6 kmh NW 7.4 mph11.9 kmh 30.08 in1018.6 mb 0.00 in0.0 mm 0.00 in0.0 mm 0.00 in0.0 mm
03:35 AM 63.2°F17.3°C 60.6°F15.9°C 91% 3.9 mph WNW6.3 kmh WNW 7.4 mph11.9 kmh 30.08 in1018.6 mb 0.00 in0.0 mm 0.00 in0.0 mm 0.00 in0.0 mm
03:40 AM 63.4°F17.4°C 60.7°F15.9°C 91% 3.8 mph WNW6.1 kmh WNW 6.5 mph10.5 kmh 30.08 in1018.6 mb 0.00 in0.0 mm 0.00 in0.0 mm 0.00 in0.0 mm
03:45 AM 63.4°F17.4°C 60.7°F15.9°C 91% 3.9 mph WNW6.3 kmh WNW 6.5 mph10.5 kmh 30.08 in1018.6 mb 0.00 in0.0 mm 0.00 in0.0 mm 0.00 in0.0 mm
03:50 AM 63.4°F17.4°C 60.7°F15.9°C 91% 4.1 mph W6.6 kmh W 8.0 mph12.9 kmh 30.08 in1018.6 mb 0.00 in0.0 mm 0.00 in0.0 mm 0.00 in0.0 mm
03:55 AM 63.6°F17.6°C 60.9°F16.1°C 91% 5.0 mph W8.0 kmh W 8.0 mph12.9 kmh 30.08 in1018.6 mb 0.00 in0.0 mm 0.00 in0.0 mm 0.00 in0.0 mm
04:00 AM 63.6°F17.6°C 60.9°F16.1°C 91% 4.5 mph W7.2 kmh W 7.4 mph11.9 kmh 30.08 in1018.6 mb 0.00 in0.0 mm 0.00 in0.0 mm 0.00 in0.0 mm
04:05 AM 63.6°F17.6°C 60.9°F16.1°C 91% 4.3 mph W6.9 kmh W 5.4 mph8.7 kmh 30.08 in1018.6 mb 0.00 in0.0 mm 0.00 in0.0 mm 0.00 in0.0 mm
04:10 AM 63.6°F17.6°C 60.9°F16.1°C 91% 5.3 mph W8.5 kmh W 7.1 mph11.4 kmh 30.08 in1018.6 mb 0.00 in0.0 mm 0.00 in0.0 mm 0.00 in0.0 mm
04:15 AM 63.6°F17.6°C 60.9°F16.1°C 91% 4.8 mph W7.7 kmh W 7.1 mph11.4 kmh 30.08 in1018.6 mb 0.00 in0.0 mm 0.00 in0.0 mm 0.00 in0.0 mm
04:20 AM 63.6°F17.6°C 60.9°F16.1°C 91% 4.1 mph W6.6 kmh W 7.1 mph11.4 kmh 30.08 in1018.6 mb 0.00 in0.0 mm 0.00 in0.0 mm 0.00 in0.0 mm
04:25 AM 63.6°F17.6°C 61.2°F16.2°C 92% 5.1 mph W8.2 kmh W 7.1 mph11.4 kmh 30.08 in1018.6 mb 0.00 in0.0 mm 0.00 in0.0 mm 0.00 in0.0 mm
04:35 AM 63.6°F17.6°C 61.2°F16.2°C 92% 4.5 mph W7.2 kmh W 7.4 mph11.9 kmh 30.08 in1018.6 mb 0.00 in0.0 mm 0.00 in0.0 mm 0.00 in0.0 mm
04:40 AM 63.6°F17.6°C 61.2°F16.2°C 92% 4.6 mph WSW7.4 kmh WSW 7.4 mph11.9 kmh 30.08 in1018.6 mb 0.00 in0.0 mm 0.00 in0.0 mm 0.00 in0.0 mm
04:45 AM 63.6°F17.6°C 61.2°F16.2°C 92% 3.9 mph WSW6.3 kmh WSW 7.7 mph12.4 kmh 30.08 in1018.6 mb 0.00 in0.0 mm 0.00 in0.0 mm 0.00 in0.0 mm
04:50 AM 63.6°F17.6°C 61.2°F16.2°C 92% 3.7 mph W6.0 kmh W 7.7 mph12.4 kmh 30.08 in1018.6 mb 0.00 in0.0 mm 0.00 in0.0 mm 0.00 in0.0 mm
04:55 AM 63.6°F17.6°C 61.2°F16.2°C 92% 4.4 mph W7.1 kmh W 6.5 mph10.5 kmh 30.08 in1018.6 mb 0.00 in0.0 mm 0.00 in0.0 mm 0.00 in0.0 mm
05:00 AM 63.8°F17.7°C 61.4°F16.3°C 92% 4.4 mph WSW7.1 kmh WSW 6.5 mph10.5 kmh 30.08 in1018.6 mb 0.00 in0.0 mm 0.00 in0.0 mm 0.00 in0.0 mm
05:05 AM 63.8°F17.7°C 61.4°F16.3°C 92% 3.9 mph W6.3 kmh W 5.1 mph8.2 kmh 30.08 in1018.6 mb 0.00 in0.0 mm 0.00 in0.0 mm 0.00 in0.0 mm
05:10 AM 63.8°F17.7°C 61.4°F16.3°C 92% 3.5 mph WSW5.6 kmh WSW 7.4 mph11.9 kmh 30.08 in1018.6 mb 0.00 in0.0 mm 0.00 in0.0 mm 0.00 in0.0 mm
05:15 AM 63.8°F17.7°C 61.4°F16.3°C 92% 3.4 mph WSW5.5 kmh WSW 7.4 mph11.9 kmh 30.08 in1018.6 mb 0.00 in0.0 mm 0.00 in0.0 mm 0.00 in0.0 mm
05:20 AM 64.0°F17.8°C 61.6°F16.4°C 92% 2.9 mph W4.7 kmh W 7.4 mph11.9 kmh 30.08 in1018.6 mb 0.00 in0.0 mm 0.00 in0.0 mm 0.00 in0.0 mm
05:25 AM 64.0°F17.8°C 61.6°F16.4°C 92% 2.6 mph W4.2 kmh W 4.5 mph7.2 kmh 30.08 in1018.6 mb 0.00 in0.0 mm 0.00 in0.0 mm 0.00 in0.0 mm
05:30 AM 64.0°F17.8°C 61.6°F16.4°C 92% 3.3 mph WSW5.3 kmh WSW 4.5 mph7.2 kmh 30.08 in1018.6 mb 0.00 in0.0 mm 0.00 in0.0 mm 0.00 in0.0 mm
05:35 AM 64.1°F17.8°C 61.8°F16.6°C 92% 3.9 mph WSW6.3 kmh WSW 5.7 mph9.2 kmh 30.08 in1018.6 mb 0.00 in0.0 mm 0.00 in0.0 mm 0.00 in0.0 mm
05:40 AM 64.1°F17.8°C 61.8°F16.6°C 92% 5.1 mph WSW8.2 kmh WSW 8.0 mph12.9 kmh 30.08 in1018.6 mb 0.00 in0.0 mm 0.00 in0.0 mm 0.00 in0.0 mm
05:45 AM 64.1°F17.8°C 61.8°F16.6°C 92% 5.5 mph WSW8.9 kmh WSW 8.0 mph12.9 kmh 30.08 in1018.6 mb 0.00 in0.0 mm 0.00 in0.0 mm 0.00 in0.0 mm
05:50 AM 64.1°F17.8°C 61.8°F16.6°C 92% 4.9 mph W7.9 kmh W 7.4 mph11.9 kmh 30.08 in1018.6 mb 0.00 in0.0 mm 0.00 in0.0 mm 0.00 in0.0 mm
05:55 AM 64.1°F17.8°C 61.8°F16.6°C 92% 4.3 mph W6.9 kmh W 7.1 mph11.4 kmh 30.08 in1018.6 mb 0.00 in0.0 mm 0.00 in0.0 mm 0.00 in0.0 mm
06:00 AM 64.1°F17.8°C 61.8°F16.6°C 92% 3.5 mph WSW5.6 kmh WSW 4.5 mph7.2 kmh 30.08 in1018.6 mb 0.00 in0.0 mm 0.00 in0.0 mm 0.00 in0.0 mm
06:05 AM 64.1°F17.8°C 61.8°F16.6°C 92% 3.1 mph WSW5.0 kmh WSW 5.4 mph8.7 kmh 30.08 in1018.6 mb 0.00 in0.0 mm 0.00 in0.0 mm 0.00 in0.0 mm
06:10 AM 64.1°F17.8°C 61.8°F16.6°C 92% 2.0 mph SW3.2 kmh SW 5.4 mph8.7 kmh 30.08 in1018.6 mb 0.00 in0.0 mm 0.00 in0.0 mm 0.00 in0.0 mm
06:15 AM 64.0°F17.8°C 61.6°F16.4°C 92% 2.1 mph SSW3.4 kmh SSW 3.9 mph6.3 kmh 30.08 in1018.6 mb 0.00 in0.0 mm 0.00 in0.0 mm 0.00 in0.0 mm
06:20 AM 64.0°F17.8°C 61.6°F16.4°C 92% 1.6 mph SSW2.6 kmh SSW 3.9 mph6.3 kmh 30.08 in1018.6 mb 0.00 in0.0 mm 0.00 in0.0 mm 0.00 in0.0 mm
06:25 AM 63.8°F17.7°C 61.4°F16.3°C 92% 1.2 mph SW1.9 kmh SW 2.7 mph4.3 kmh 30.08 in1018.6 mb 0.00 in0.0 mm 0.00 in0.0 mm 0.00 in0.0 mm
06:30 AM 63.8°F17.7°C 61.7°F16.5°C 93% 1.5 mph SW2.4 kmh SW 3.3 mph5.3 kmh 30.08 in1018.6 mb 0.00 in0.0 mm 0.00 in0.0 mm 0.00 in0.0 mm
06:35 AM 63.8°F17.7°C 61.7°F16.5°C 93% 1.2 mph SSW1.9 kmh SSW 3.3 mph5.3 kmh 30.08 in1018.6 mb 0.00 in0.0 mm 0.00 in0.0 mm 0.00 in0.0 mm
06:40 AM 63.8°F17.7°C 61.7°F16.5°C 93% 1.1 mph S1.8 kmh S 3.3 mph5.3 kmh 30.08 in1018.6 mb 0.00 in0.0 mm 0.00 in0.0 mm 0.00 in0.0 mm
06:45 AM 63.8°F17.7°C 61.7°F16.5°C 93% 1.2 mph SSW1.9 kmh SSW 3.6 mph5.8 kmh 30.08 in1018.6 mb 0.00 in0.0 mm 0.00 in0.0 mm 0.00 in0.0 mm
06:50 AM 63.8°F17.7°C 61.7°F16.5°C 93% 1.1 mph SSW1.8 kmh SSW 4.2 mph6.8 kmh 30.08 in1018.6 mb 0.00 in0.0 mm 0.00 in0.0 mm 0.00 in0.0 mm
06:55 AM 63.8°F17.7°C 61.7°F16.5°C 93% 1.7 mph SSW2.7 kmh SSW 4.8 mph7.7 kmh 30.08 in1018.6 mb 0.00 in0.0 mm 0.00 in0.0 mm 0.00 in0.0 mm
07:00 AM 63.8°F17.7°C 61.7°F16.5°C 93% 2.4 mph SSW3.9 kmh SSW 5.4 mph8.7 kmh 30.08 in1018.6 mb 0.00 in0.0 mm 0.00 in0.0 mm 0.00 in0.0 mm
07:05 AM 63.8°F17.7°C 61.7°F16.5°C 93% 2.0 mph SSW3.2 kmh SSW 5.4 mph8.7 kmh 30.08 in1018.6 mb 0.00 in0.0 mm 0.00 in0.0 mm 0.00 in0.0 mm
07:10 AM 64.0°F17.8°C 61.9°F16.6°C 93% 1.5 mph S2.4 kmh S 3.0 mph4.8 kmh 30.08 in1018.6 mb 0.00 in0.0 mm 0.00 in0.0 mm 0.00 in0.0 mm
07:15 AM 64.0°F17.8°C 61.9°F16.6°C 93% 2.0 mph SSW3.2 kmh SSW 4.2 mph6.8 kmh 30.08 in1018.6 mb 0.00 in0.0 mm 0.00 in0.0 mm 0.00 in0.0 mm
07:20 AM 64.0°F17.8°C 61.9°F16.6°C 93% 2.2 mph SSW3.5 kmh SSW 4.2 mph6.8 kmh 30.08 in1018.6 mb 0.00 in0.0 mm 0.00 in0.0 mm 0.00 in0.0 mm
07:25 AM 64.1°F17.8°C 62.1°F16.7°C 93% 1.8 mph SSW2.9 kmh SSW 4.2 mph6.8 kmh 30.08 in1018.6 mb 0.00 in0.0 mm 0.00 in0.0 mm 0.00 in0.0 mm
07:30 AM 64.1°F17.8°C 62.1°F16.7°C 93% 1.5 mph SW2.4 kmh SW 4.2 mph6.8 kmh 30.08 in1018.6 mb 0.00 in0.0 mm 0.00 in0.0 mm 0.00 in0.0 mm
07:35 AM 64.1°F17.8°C 62.1°F16.7°C 93% 1.5 mph SW2.4 kmh SW 3.6 mph5.8 kmh 30.08 in1018.6 mb 0.00 in0.0 mm 0.00 in0.0 mm 0.00 in0.0 mm
07:40 AM 64.3°F17.9°C 62.2°F16.8°C 93% 2.0 mph SW3.2 kmh SW 5.1 mph8.2 kmh 30.08 in1018.6 mb 0.00 in0.0 mm 0.00 in0.0 mm 0.00 in0.0 mm
07:45 AM 64.3°F17.9°C 62.2°F16.8°C 93% 1.6 mph SW2.6 kmh SW 5.1 mph8.2 kmh 30.08 in1018.6 mb 0.00 in0.0 mm 0.00 in0.0 mm 0.00 in0.0 mm
07:50 AM 64.3°F17.9°C 62.2°F16.8°C 93% 1.7 mph SW2.7 kmh SW 4.2 mph6.8 kmh 30.08 in1018.6 mb 0.00 in0.0 mm 0.00 in0.0 mm 0.00 in0.0 mm
07:55 AM 64.5°F18.1°C 62.4°F16.9°C 93% 1.5 mph SSW2.4 kmh SSW 3.3 mph5.3 kmh 30.08 in1018.6 mb 0.00 in0.0 mm 0.00 in0.0 mm 0.00 in0.0 mm
08:00 AM 64.5°F18.1°C 62.4°F16.9°C 93% 1.2 mph SW1.9 kmh SW 3.3 mph5.3 kmh 30.08 in1018.6 mb 0.00 in0.0 mm 0.00 in0.0 mm 0.00 in0.0 mm
08:05 AM 64.7°F18.2°C 62.6°F17.0°C 93% 1.6 mph WSW2.6 kmh WSW 4.2 mph6.8 kmh 30.08 in1018.6 mb 0.00 in0.0 mm 0.00 in0.0 mm 0.00 in0.0 mm
08:10 AM 64.7°F18.2°C 62.6°F17.0°C 93% 2.0 mph W3.2 kmh W 4.2 mph6.8 kmh 30.08 in1018.6 mb 0.00 in0.0 mm 0.00 in0.0 mm 0.00 in0.0 mm
08:15 AM 64.7°F18.2°C 62.6°F17.0°C 93% 1.7 mph W2.7 kmh W 3.9 mph6.3 kmh 30.08 in1018.6 mb 0.00 in0.0 mm 0.00 in0.0 mm 0.00 in0.0 mm
08:20 AM 64.8°F18.2°C 62.8°F17.1°C 93% 2.7 mph W4.3 kmh W 5.7 mph9.2 kmh 30.11 in1019.6 mb 0.00 in0.0 mm 0.00 in0.0 mm 0.00 in0.0 mm
08:25 AM 64.8°F18.2°C 62.8°F17.1°C 93% 4.0 mph W6.4 kmh W 6.5 mph10.5 kmh 30.11 in1019.6 mb 0.04 in1.0 mm 0.48 in12.2 mm 0.04 in1.0 mm
08:30 AM 64.8°F18.2°C 62.8°F17.1°C 93% 4.3 mph WSW6.9 kmh WSW 9.5 mph15.3 kmh 30.11 in1019.6 mb 0.04 in1.0 mm 0.00 in0.0 mm 0.04 in1.0 mm
08:35 AM 64.7°F18.2°C 62.6°F17.0°C 93% 5.3 mph WSW8.5 kmh WSW 9.5 mph15.3 kmh 30.11 in1019.6 mb 0.04 in1.0 mm 0.00 in0.0 mm 0.04 in1.0 mm
08:40 AM 64.7°F18.2°C 62.6°F17.0°C 93% 5.5 mph WSW8.9 kmh WSW 9.5 mph15.3 kmh 30.11 in1019.6 mb 0.04 in1.0 mm 0.00 in0.0 mm 0.04 in1.0 mm
08:45 AM 64.8°F18.2°C 62.8°F17.1°C 93% 5.4 mph WSW8.7 kmh WSW 8.6 mph13.8 kmh 30.11 in1019.6 mb 0.04 in1.0 mm 0.00 in0.0 mm 0.04 in1.0 mm
08:50 AM 64.8°F18.2°C 62.8°F17.1°C 93% 5.4 mph W8.7 kmh W 8.6 mph13.8 kmh 30.11 in1019.6 mb 0.04 in1.0 mm 0.00 in0.0 mm 0.04 in1.0 mm
08:55 AM 65.0°F18.3°C 63.0°F17.2°C 93% 5.5 mph W8.9 kmh W 8.3 mph13.4 kmh 30.11 in1019.6 mb 0.04 in1.0 mm 0.00 in0.0 mm 0.04 in1.0 mm
09:00 AM 65.0°F18.3°C 63.0°F17.2°C 93% 6.1 mph W9.8 kmh W 8.6 mph13.8 kmh 30.11 in1019.6 mb 0.04 in1.0 mm 0.00 in0.0 mm 0.04 in1.0 mm
09:05 AM 65.2°F18.4°C 63.1°F17.3°C 93% 6.3 mph W10.1 kmh W 10.7 mph17.2 kmh 30.11 in1019.6 mb 0.04 in1.0 mm 0.00 in0.0 mm 0.04 in1.0 mm
09:10 AM 65.2°F18.4°C 63.1°F17.3°C 93% 5.8 mph WSW9.3 kmh WSW 10.7 mph17.2 kmh 30.08 in1018.6 mb 0.04 in1.0 mm 0.00 in0.0 mm 0.04 in1.0 mm
09:15 AM 65.4°F18.6°C 63.3°F17.4°C 93% 5.9 mph WSW9.5 kmh WSW 10.4 mph16.7 kmh 30.08 in1018.6 mb 0.04 in1.0 mm 0.00 in0.0 mm 0.04 in1.0 mm
09:20 AM 65.4°F18.6°C 63.3°F17.4°C 93% 6.8 mph W10.9 kmh W 10.7 mph17.2 kmh 30.11 in1019.6 mb 0.04 in1.0 mm 0.00 in0.0 mm 0.04 in1.0 mm
09:25 AM 65.2°F18.4°C 63.1°F17.3°C 93% 8.5 mph W13.7 kmh W 14.3 mph23.0 kmh 30.11 in1019.6 mb 0.00 in0.0 mm 0.00 in0.0 mm 0.04 in1.0 mm
09:30 AM 64.8°F18.2°C 62.8°F17.1°C 93% 10.0 mph W16.1 kmh W 14.3 mph23.0 kmh 30.11 in1019.6 mb 0.00 in0.0 mm 0.00 in0.0 mm 0.04 in1.0 mm
09:35 AM 64.8°F18.2°C 62.8°F17.1°C 93% 9.9 mph W15.9 kmh W 13.7 mph22.0 kmh 30.11 in1019.6 mb 0.00 in0.0 mm 0.00 in0.0 mm 0.04 in1.0 mm
09:40 AM 65.0°F18.3°C 62.6°F17.0°C 92% 9.8 mph W15.8 kmh W 14.3 mph23.0 kmh 30.11 in1019.6 mb 0.00 in0.0 mm 0.00 in0.0 mm 0.04 in1.0 mm
09:45 AM 65.4°F18.6°C 63.0°F17.2°C 92% 8.9 mph W14.3 kmh W 14.3 mph23.0 kmh 30.11 in1019.6 mb 0.00 in0.0 mm 0.00 in0.0 mm 0.04 in1.0 mm
09:50 AM 65.4°F18.6°C 63.0°F17.2°C 92% 9.7 mph W15.6 kmh W 14.3 mph23.0 kmh 30.11 in1019.6 mb 0.00 in0.0 mm 0.00 in0.0 mm 0.04 in1.0 mm
09:55 AM 65.4°F18.6°C 63.0°F17.2°C 92% 10.7 mph W17.2 kmh W 14.3 mph23.0 kmh 30.11 in1019.6 mb 0.00 in0.0 mm 0.00 in0.0 mm 0.04 in1.0 mm
10:00 AM 65.4°F18.6°C 63.0°F17.2°C 92% 9.1 mph W14.6 kmh W 13.4 mph21.6 kmh 30.11 in1019.6 mb 0.00 in0.0 mm 0.00 in0.0 mm 0.04 in1.0 mm
10:05 AM 65.6°F18.7°C 63.2°F17.3°C 92% 8.5 mph WSW13.7 kmh WSW 13.4 mph21.6 kmh 30.11 in1019.6 mb 0.00 in0.0 mm 0.00 in0.0 mm 0.04 in1.0 mm
10:10 AM 65.8°F18.8°C 63.4°F17.4°C 92% 7.5 mph W12.1 kmh W 10.1 mph16.3 kmh 30.11 in1019.6 mb 0.00 in0.0 mm 0.00 in0.0 mm 0.04 in1.0 mm
10:15 AM 65.9°F18.8°C 63.5°F17.5°C 92% 7.7 mph WNW12.4 kmh WNW 12.8 mph20.6 kmh 30.11 in1019.6 mb 0.00 in0.0 mm 0.00 in0.0 mm 0.04 in1.0 mm
10:20 AM 66.1°F18.9°C 63.7°F17.6°C 92% 8.3 mph WNW13.4 kmh WNW 13.1 mph21.1 kmh 30.11 in1019.6 mb 0.00 in0.0 mm 0.00 in0.0 mm 0.04 in1.0 mm
10:25 AM 66.3°F19.1°C 63.9°F17.7°C 92% 7.0 mph WNW11.3 kmh WNW 13.1 mph21.1 kmh 30.11 in1019.6 mb 0.00 in0.0 mm 0.00 in0.0 mm 0.04 in1.0 mm
10:30 AM 66.7°F19.3°C 64.3°F17.9°C 92% 6.3 mph W10.1 kmh W 10.1 mph16.3 kmh 30.11 in1019.6 mb 0.00 in0.0 mm 0.00 in0.0 mm 0.04 in1.0 mm
10:35 AM 66.8°F19.3°C 64.1°F17.8°C 91% 7.1 mph W11.4 kmh W 10.1 mph16.3 kmh 30.11 in1019.6 mb 0.00 in0.0 mm 0.00 in0.0 mm 0.04 in1.0 mm
10:40 AM 67.2°F19.6°C 64.5°F18.1°C 91% 7.3 mph W11.7 kmh W 14.0 mph22.5 kmh 30.11 in1019.6 mb 0.00 in0.0 mm 0.00 in0.0 mm 0.04 in1.0 mm
10:45 AM 67.4°F19.7°C 64.7°F18.2°C 91% 9.7 mph W15.6 kmh W 14.0 mph22.5 kmh 30.11 in1019.6 mb 0.00 in0.0 mm 0.00 in0.0 mm 0.04 in1.0 mm
10:50 AM 67.6°F19.8°C 64.5°F18.1°C 90% 10.6 mph W17.1 kmh W 14.6 mph23.5 kmh 30.11 in1019.6 mb 0.00 in0.0 mm 0.00 in0.0 mm 0.04 in1.0 mm
10:55 AM 67.9°F19.9°C 64.9°F18.3°C 90% 8.6 mph W13.8 kmh W 14.6 mph23.5 kmh 30.11 in1019.6 mb 0.00 in0.0 mm 0.00 in0.0 mm 0.04 in1.0 mm
11:00 AM 67.9°F19.9°C 64.5°F18.1°C 89% 9.2 mph W14.8 kmh W 13.7 mph22.0 kmh 30.11 in1019.6 mb 0.00 in0.0 mm 0.00 in0.0 mm 0.04 in1.0 mm
11:05 AM 68.1°F20.1°C 64.7°F18.2°C 89% 9.9 mph W15.9 kmh W 13.7 mph22.0 kmh 30.11 in1019.6 mb 0.00 in0.0 mm 0.00 in0.0 mm 0.04 in1.0 mm
11:10 AM 68.1°F20.1°C 64.7°F18.2°C 89% 10.0 mph W16.1 kmh W 14.0 mph22.5 kmh 30.11 in1019.6 mb 0.00 in0.0 mm 0.00 in0.0 mm 0.04 in1.0 mm
11:15 AM 68.3°F20.2°C 64.6°F18.1°C 88% 10.4 mph W16.7 kmh W 16.1 mph25.9 kmh 30.11 in1019.6 mb 0.00 in0.0 mm 0.00 in0.0 mm 0.04 in1.0 mm
11:20 AM 68.4°F20.2°C 64.8°F18.2°C 88% 10.8 mph W17.4 kmh W 16.1 mph25.9 kmh 30.11 in1019.6 mb 0.00 in0.0 mm 0.00 in0.0 mm 0.04 in1.0 mm
11:25 AM 68.8°F20.4°C 64.8°F18.2°C 87% 9.8 mph WNW15.8 kmh WNW 14.9 mph24.0 kmh 30.11 in1019.6 mb 0.00 in0.0 mm 0.00 in0.0 mm 0.04 in1.0 mm
11:30 AM 69.3°F20.7°C 65.3°F18.5°C 87% 8.5 mph W13.7 kmh W 14.9 mph24.0 kmh 30.11 in1019.6 mb 0.00 in0.0 mm 0.00 in0.0 mm 0.04 in1.0 mm
11:35 AM 69.7°F20.9°C 65.3°F18.5°C 86% 8.4 mph WNW13.5 kmh WNW 11.6 mph18.7 kmh 30.11 in1019.6 mb 0.00 in0.0 mm 0.00 in0.0 mm 0.04 in1.0 mm
11:40 AM 70.4°F21.3°C 65.7°F18.7°C 85% 10.2 mph W16.4 kmh W 16.1 mph25.9 kmh 30.11 in1019.6 mb 0.00 in0.0 mm 0.00 in0.0 mm 0.04 in1.0 mm
11:45 AM 70.6°F21.4°C 65.5°F18.6°C 84% 10.1 mph W16.3 kmh W 16.1 mph25.9 kmh 30.11 in1019.6 mb 0.00 in0.0 mm 0.00 in0.0 mm 0.04 in1.0 mm
11:50 AM 70.8°F21.6°C 65.4°F18.6°C 83% 10.2 mph WSW16.4 kmh WSW 16.7 mph26.9 kmh 30.11 in1019.6 mb 0.00 in0.0 mm 0.00 in0.0 mm 0.04 in1.0 mm
11:55 AM 71.0°F21.7°C 65.2°F18.4°C 82% 11.0 mph WSW17.7 kmh WSW 16.7 mph26.9 kmh 30.11 in1019.6 mb 0.00 in0.0 mm 0.00 in0.0 mm 0.04 in1.0 mm
12:00 PM 71.3°F21.8°C 65.2°F18.4°C 81% 10.7 mph W17.2 kmh W 17.6 mph28.3 kmh 30.11 in1019.6 mb 0.00 in0.0 mm 0.00 in0.0 mm 0.04 in1.0 mm
12:05 PM 71.3°F21.8°C 65.2°F18.4°C 81% 10.7 mph W17.2 kmh W 17.6 mph28.3 kmh 30.11 in1019.6 mb 0.00 in0.0 mm 0.00 in0.0 mm 0.04 in1.0 mm
12:10 PM 71.3°F21.8°C 65.2°F18.4°C 81% 9.6 mph W15.4 kmh W 14.0 mph22.5 kmh 30.11 in1019.6 mb 0.00 in0.0 mm 0.00 in0.0 mm 0.04 in1.0 mm
12:15 PM 71.3°F21.8°C 65.2°F18.4°C 81% 8.6 mph W13.8 kmh W 13.7 mph22.0 kmh 30.11 in1019.6 mb 0.00 in0.0 mm 0.00 in0.0 mm 0.04 in1.0 mm
12:20 PM 71.3°F21.8°C 64.8°F18.2°C 80% 8.2 mph W13.2 kmh W 11.6 mph18.7 kmh 30.11 in1019.6 mb 0.00 in0.0 mm 0.00 in0.0 mm 0.04 in1.0 mm
12:25 PM 71.2°F21.8°C 64.3°F17.9°C 79% 10.9 mph WNW17.5 kmh WNW 16.1 mph25.9 kmh 30.11 in1019.6 mb 0.00 in0.0 mm 0.00 in0.0 mm 0.04 in1.0 mm
12:30 PM 71.2°F21.8°C 64.3°F17.9°C 79% 10.2 mph WNW16.4 kmh WNW 16.1 mph25.9 kmh 30.11 in1019.6 mb 0.00 in0.0 mm 0.00 in0.0 mm 0.04 in1.0 mm
12:35 PM 71.2°F21.8°C 64.3°F17.9°C 79% 8.9 mph WNW14.3 kmh WNW 13.1 mph21.1 kmh 30.11 in1019.6 mb 0.00 in0.0 mm 0.00 in0.0 mm 0.04 in1.0 mm
12:40 PM 71.0°F21.7°C 63.8°F17.7°C 78% 9.0 mph NW14.5 kmh NW 13.1 mph21.1 kmh 30.11 in1019.6 mb 0.00 in0.0 mm 0.00 in0.0 mm 0.04 in1.0 mm
12:45 PM 70.8°F21.6°C 63.6°F17.6°C 78% 8.2 mph WNW13.2 kmh WNW 11.6 mph18.7 kmh 30.11 in1019.6 mb 0.00 in0.0 mm 0.00 in0.0 mm 0.04 in1.0 mm
12:50 PM 70.8°F21.6°C 63.6°F17.6°C 78% 9.2 mph W14.8 kmh W 14.3 mph23.0 kmh 30.11 in1019.6 mb 0.00 in0.0 mm 0.00 in0.0 mm 0.04 in1.0 mm
12:55 PM 70.3°F21.3°C 63.4°F17.4°C 79% 8.7 mph W14.0 kmh W 14.3 mph23.0 kmh 30.11 in1019.6 mb 0.00 in0.0 mm 0.00 in0.0 mm 0.04 in1.0 mm
01:00 PM 70.3°F21.3°C 63.4°F17.4°C 79% 7.8 mph WNW12.6 kmh WNW 14.3 mph23.0 kmh 30.11 in1019.6 mb 0.00 in0.0 mm 0.00 in0.0 mm 0.04 in1.0 mm
01:05 PM 70.1°F21.2°C 63.3°F17.4°C 79% 7.6 mph WNW12.2 kmh WNW 10.7 mph17.2 kmh 30.11 in1019.6 mb 0.00 in0.0 mm 0.00 in0.0 mm 0.04 in1.0 mm
01:10 PM 69.9°F21.1°C 62.7°F17.1°C 78% 7.3 mph W11.7 kmh W 10.4 mph16.7 kmh 30.11 in1019.6 mb 0.00 in0.0 mm 0.00 in0.0 mm 0.04 in1.0 mm
01:15 PM 69.9°F21.1°C 62.7°F17.1°C 78% 6.7 mph W10.8 kmh W 10.4 mph16.7 kmh 30.11 in1019.6 mb 0.00 in0.0 mm 0.00 in0.0 mm 0.04 in1.0 mm
01:20 PM 69.7°F20.9°C 62.5°F16.9°C 78% 6.6 mph W10.6 kmh W 10.7 mph17.2 kmh 30.11 in1019.6 mb 0.00 in0.0 mm 0.00 in0.0 mm 0.04 in1.0 mm
01:25 PM 69.7°F20.9°C 62.5°F16.9°C 78% 8.0 mph W12.9 kmh W 14.3 mph23.0 kmh 30.11 in1019.6 mb 0.00 in0.0 mm 0.00 in0.0 mm 0.04 in1.0 mm
01:30 PM 69.7°F20.9°C 62.5°F16.9°C 78% 7.9 mph W12.7 kmh W 14.3 mph23.0 kmh 30.11 in1019.6 mb 0.00 in0.0 mm 0.00 in0.0 mm 0.04 in1.0 mm
01:35 PM 69.7°F20.9°C 62.5°F16.9°C 78% 6.7 mph W10.8 kmh W 10.7 mph17.2 kmh 30.11 in1019.6 mb 0.00 in0.0 mm 0.00 in0.0 mm 0.04 in1.0 mm
01:40 PM 69.7°F20.9°C 62.5°F16.9°C 78% 6.0 mph W9.7 kmh W 10.1 mph16.3 kmh 30.11 in1019.6 mb 0.00 in0.0 mm 0.00 in0.0 mm 0.04 in1.0 mm
01:45 PM 69.9°F21.1°C 62.7°F17.1°C 78% 6.6 mph W10.6 kmh W 10.7 mph17.2 kmh 30.11 in1019.6 mb 0.00 in0.0 mm 0.00 in0.0 mm 0.04 in1.0 mm
01:50 PM 69.7°F20.9°C 62.9°F17.2°C 79% 7.5 mph W12.1 kmh W 10.7 mph17.2 kmh 30.11 in1019.6 mb 0.00 in0.0 mm 0.00 in0.0 mm 0.04 in1.0 mm
01:55 PM 69.5°F20.8°C 62.7°F17.1°C 79% 7.9 mph W12.7 kmh W 13.7 mph22.0 kmh 30.11 in1019.6 mb 0.00 in0.0 mm 0.00 in0.0 mm 0.04 in1.0 mm
02:00 PM 69.2°F20.7°C 62.4°F16.9°C 79% 8.8 mph W14.2 kmh W 14.0 mph22.5 kmh 30.11 in1019.6 mb 0.00 in0.0 mm 0.00 in0.0 mm 0.04 in1.0 mm
02:05 PM 69.2°F20.7°C 62.4°F16.9°C 79% 9.5 mph W15.3 kmh W 14.0 mph22.5 kmh 30.11 in1019.6 mb 0.00 in0.0 mm 0.00 in0.0 mm 0.04 in1.0 mm
02:10 PM 69.2°F20.7°C 62.4°F16.9°C 79% 9.1 mph W14.6 kmh W 13.1 mph21.1 kmh 30.11 in1019.6 mb 0.00 in0.0 mm 0.00 in0.0 mm 0.04 in1.0 mm
02:15 PM 69.2°F20.7°C 62.7°F17.1°C 80% 9.2 mph W14.8 kmh W 16.7 mph26.9 kmh 30.11 in1019.6 mb 0.00 in0.0 mm 0.00 in0.0 mm 0.04 in1.0 mm
02:20 PM 69.2°F20.7°C 62.4°F16.9°C 79% 9.0 mph W14.5 kmh W 16.7 mph26.9 kmh 30.11 in1019.6 mb 0.00 in0.0 mm 0.00 in0.0 mm 0.04 in1.0 mm
02:25 PM 69.0°F20.6°C 62.2°F16.8°C 79% 8.1 mph WSW13.0 kmh WSW 14.6 mph23.5 kmh 30.11 in1019.6 mb 0.00 in0.0 mm 0.00 in0.0 mm 0.04 in1.0 mm
02:30 PM 69.0°F20.6°C 62.2°F16.8°C 79% 9.6 mph W15.4 kmh W 12.8 mph20.6 kmh 30.11 in1019.6 mb 0.00 in0.0 mm 0.00 in0.0 mm 0.04 in1.0 mm
02:35 PM 68.8°F20.4°C 62.0°F16.7°C 79% 9.4 mph WNW15.1 kmh WNW 12.8 mph20.6 kmh 30.11 in1019.6 mb 0.00 in0.0 mm 0.00 in0.0 mm 0.04 in1.0 mm
02:40 PM 68.8°F20.4°C 62.0°F16.7°C 79% 8.1 mph WNW13.0 kmh WNW 14.6 mph23.5 kmh 30.11 in1019.6 mb 0.00 in0.0 mm 0.00 in0.0 mm 0.04 in1.0 mm
02:45 PM 68.8°F20.4°C 62.0°F16.7°C 79% 9.9 mph WNW15.9 kmh WNW 14.6 mph23.5 kmh 30.11 in1019.6 mb 0.00 in0.0 mm 0.00 in0.0 mm 0.04 in1.0 mm
02:50 PM 68.8°F20.4°C 62.0°F16.7°C 79% 9.9 mph WNW15.9 kmh WNW 14.6 mph23.5 kmh 30.11 in1019.6 mb 0.00 in0.0 mm 0.00 in0.0 mm 0.04 in1.0 mm
02:55 PM 68.8°F20.4°C 62.0°F16.7°C 79% 8.9 mph WNW14.3 kmh WNW 13.7 mph22.0 kmh 30.11 in1019.6 mb 0.00 in0.0 mm 0.00 in0.0 mm 0.04 in1.0 mm
03:00 PM 69.0°F20.6°C 62.2°F16.8°C 79% 9.4 mph WNW15.1 kmh WNW 13.7 mph22.0 kmh 30.11 in1019.6 mb 0.00 in0.0 mm 0.00 in0.0 mm 0.04 in1.0 mm
03:05 PM 69.0°F20.6°C 62.2°F16.8°C 79% 9.2 mph WNW14.8 kmh WNW 11.6 mph18.7 kmh 30.11 in1019.6 mb 0.00 in0.0 mm 0.00 in0.0 mm 0.04 in1.0 mm
03:10 PM 68.8°F20.4°C 62.0°F16.7°C 79% 10.3 mph WNW16.6 kmh WNW 13.4 mph21.6 kmh 30.11 in1019.6 mb 0.00 in0.0 mm 0.00 in0.0 mm 0.04 in1.0 mm
03:15 PM 68.8°F20.4°C 62.0°F16.7°C 79% 10.3 mph WNW16.6 kmh WNW 13.4 mph21.6 kmh 30.11 in1019.6 mb 0.00 in0.0 mm 0.00 in0.0 mm 0.04 in1.0 mm
03:20 PM 68.8°F20.4°C 62.0°F16.7°C 79% 8.6 mph WNW13.8 kmh WNW 11.6 mph18.7 kmh 30.11 in1019.6 mb 0.00 in0.0 mm 0.00 in0.0 mm 0.04 in1.0 mm
03:25 PM 68.8°F20.4°C 62.0°F16.7°C 79% 8.0 mph WNW12.9 kmh WNW 11.3 mph18.2 kmh 30.11 in1019.6 mb 0.00 in0.0 mm 0.00 in0.0 mm 0.04 in1.0 mm
03:30 PM 68.6°F20.3°C 61.9°F16.6°C 79% 7.2 mph WNW11.6 kmh WNW 11.3 mph18.2 kmh 30.11 in1019.6 mb 0.00 in0.0 mm 0.00 in0.0 mm 0.04 in1.0 mm
03:35 PM 68.8°F20.4°C 62.0°F16.7°C 79% 5.1 mph W8.2 kmh W 7.7 mph12.4 kmh 30.11 in1019.6 mb 0.00 in0.0 mm 0.00 in0.0 mm 0.04 in1.0 mm
03:40 PM 69.3°F20.7°C 62.6°F17.0°C 79% 5.2 mph W8.4 kmh W 8.3 mph13.4 kmh 30.11 in1019.6 mb 0.00 in0.0 mm 0.00 in0.0 mm 0.04 in1.0 mm
03:45 PM 69.7°F20.9°C 62.9°F17.2°C 79% 5.4 mph W8.7 kmh W 9.5 mph15.3 kmh 30.11 in1019.6 mb 0.00 in0.0 mm 0.00 in0.0 mm 0.04 in1.0 mm
03:50 PM 69.9°F21.1°C 63.1°F17.3°C 79% 4.9 mph WNW7.9 kmh WNW 9.5 mph15.3 kmh 30.08 in1018.6 mb 0.00 in0.0 mm 0.00 in0.0 mm 0.04 in1.0 mm
03:55 PM 70.1°F21.2°C 62.9°F17.2°C 78% 5.0 mph WNW8.0 kmh WNW 11.9 mph19.2 kmh 30.08 in1018.6 mb 0.00 in0.0 mm 0.00 in0.0 mm 0.04 in1.0 mm
04:00 PM 69.9°F21.1°C 62.7°F17.1°C 78% 6.5 mph WNW10.5 kmh WNW 11.9 mph19.2 kmh 30.08 in1018.6 mb 0.00 in0.0 mm 0.00 in0.0 mm 0.04 in1.0 mm
04:05 PM 69.7°F20.9°C 62.2°F16.8°C 77% 7.2 mph WNW11.6 kmh WNW 10.7 mph17.2 kmh 30.08 in1018.6 mb 0.00 in0.0 mm 0.00 in0.0 mm 0.04 in1.0 mm
04:10 PM 69.5°F20.8°C 62.0°F16.7°C 77% 7.3 mph WNW11.7 kmh WNW 10.4 mph16.7 kmh 30.08 in1018.6 mb 0.00 in0.0 mm 0.00 in0.0 mm 0.04 in1.0 mm
04:15 PM 69.3°F20.7°C 61.8°F16.6°C 77% 6.9 mph W11.1 kmh W 9.8 mph15.8 kmh 30.08 in1018.6 mb 0.00 in0.0 mm 0.00 in0.0 mm 0.04 in1.0 mm
04:20 PM 69.3°F20.7°C 61.8°F16.6°C 77% 6.6 mph W10.6 kmh W 8.9 mph14.3 kmh 30.08 in1018.6 mb 0.00 in0.0 mm 0.00 in0.0 mm 0.04 in1.0 mm
04:25 PM 69.3°F20.7°C 61.8°F16.6°C 77% 6.2 mph WNW10.0 kmh WNW 8.3 mph13.4 kmh 30.08 in1018.6 mb 0.00 in0.0 mm 0.00 in0.0 mm 0.04 in1.0 mm
04:30 PM 69.3°F20.7°C 61.8°F16.6°C 77% 5.7 mph W9.2 kmh W 10.7 mph17.2 kmh 30.08 in1018.6 mb 0.00 in0.0 mm 0.00 in0.0 mm 0.04 in1.0 mm
04:35 PM 69.2°F20.7°C 61.7°F16.5°C 77% 4.8 mph W7.7 kmh W 10.7 mph17.2 kmh 30.08 in1018.6 mb 0.00 in0.0 mm 0.00 in0.0 mm 0.04 in1.0 mm
04:40 PM 69.0°F20.6°C 61.5°F16.4°C 77% 4.5 mph WNW7.2 kmh WNW 9.2 mph14.8 kmh 30.08 in1018.6 mb 0.00 in0.0 mm 0.00 in0.0 mm 0.04 in1.0 mm
04:45 PM 68.8°F20.4°C 61.7°F16.5°C 78% 5.7 mph WNW9.2 kmh WNW 8.6 mph13.8 kmh 30.08 in1018.6 mb 0.00 in0.0 mm 0.00 in0.0 mm 0.04 in1.0 mm
04:50 PM 68.4°F20.2°C 61.7°F16.5°C 79% 6.8 mph WNW10.9 kmh WNW 10.7 mph17.2 kmh 30.08 in1018.6 mb 0.00 in0.0 mm 0.00 in0.0 mm 0.04 in1.0 mm
04:55 PM 68.3°F20.2°C 61.5°F16.4°C 79% 6.3 mph WNW10.1 kmh WNW 10.7 mph17.2 kmh 30.08 in1018.6 mb 0.00 in0.0 mm 0.00 in0.0 mm 0.04 in1.0 mm
05:00 PM 68.1°F20.1°C 61.3°F16.3°C 79% 4.8 mph WNW7.7 kmh WNW 8.6 mph13.8 kmh 30.08 in1018.6 mb 0.00 in0.0 mm 0.00 in0.0 mm 0.04 in1.0 mm
05:05 PM 67.9°F19.9°C 61.5°F16.4°C 80% 4.3 mph WNW6.9 kmh WNW 8.6 mph13.8 kmh 30.08 in1018.6 mb 0.00 in0.0 mm 0.00 in0.0 mm 0.04 in1.0 mm
05:10 PM 67.9°F19.9°C 61.5°F16.4°C 80% 5.1 mph WNW8.2 kmh WNW 7.7 mph12.4 kmh 30.08 in1018.6 mb 0.00 in0.0 mm 0.00 in0.0 mm 0.04 in1.0 mm
05:15 PM 67.7°F19.8°C 61.3°F16.3°C 80% 5.4 mph W8.7 kmh W 7.7 mph12.4 kmh 30.08 in1018.6 mb 0.00 in0.0 mm 0.00 in0.0 mm 0.04 in1.0 mm
05:20 PM 67.6°F19.8°C 61.5°F16.4°C 81% 5.7 mph W9.2 kmh W 9.2 mph14.8 kmh 30.08 in1018.6 mb 0.00 in0.0 mm 0.00 in0.0 mm 0.04 in1.0 mm
05:25 PM 67.6°F19.8°C 61.5°F16.4°C 81% 5.4 mph W8.7 kmh W 9.2 mph14.8 kmh 30.08 in1018.6 mb 0.00 in0.0 mm 0.00 in0.0 mm 0.04 in1.0 mm
05:30 PM 67.6°F19.8°C 61.5°F16.4°C 81% 4.6 mph W7.4 kmh W 7.4 mph11.9 kmh 30.08 in1018.6 mb 0.00 in0.0 mm 0.00 in0.0 mm 0.04 in1.0 mm
05:35 PM 67.4°F19.7°C 61.3°F16.3°C 81% 4.9 mph WNW7.9 kmh WNW 8.6 mph13.8 kmh 30.08 in1018.6 mb 0.00 in0.0 mm 0.00 in0.0 mm 0.04 in1.0 mm
05:40 PM 67.4°F19.7°C 61.7°F16.5°C 82% 4.9 mph WNW7.9 kmh WNW 8.6 mph13.8 kmh 30.08 in1018.6 mb 0.00 in0.0 mm 0.00 in0.0 mm 0.04 in1.0 mm
05:45 PM 67.2°F19.6°C 61.5°F16.4°C 82% 5.7 mph WNW9.2 kmh WNW 11.3 mph18.2 kmh 30.08 in1018.6 mb 0.00 in0.0 mm 0.00 in0.0 mm 0.04 in1.0 mm
05:50 PM 67.2°F19.6°C 61.5°F16.4°C 82% 6.0 mph NW9.7 kmh NW 11.3 mph18.2 kmh 30.08 in1018.6 mb 0.00 in0.0 mm 0.00 in0.0 mm 0.04 in1.0 mm
05:55 PM 67.2°F19.6°C 61.5°F16.4°C 82% 6.0 mph WNW9.7 kmh WNW 10.7 mph17.2 kmh 30.08 in1018.6 mb 0.00 in0.0 mm 0.00 in0.0 mm 0.04 in1.0 mm
06:00 PM 67.0°F19.4°C 61.7°F16.5°C 83% 5.0 mph W8.0 kmh W 10.7 mph17.2 kmh 30.08 in1018.6 mb 0.00 in0.0 mm 0.00 in0.0 mm 0.04 in1.0 mm
06:05 PM 67.0°F19.4°C 61.7°F16.5°C 83% 5.4 mph WNW8.7 kmh WNW 10.4 mph16.7 kmh 30.08 in1018.6 mb 0.00 in0.0 mm 0.00 in0.0 mm 0.04 in1.0 mm
06:10 PM 66.8°F19.3°C 61.5°F16.4°C 83% 6.5 mph WNW10.5 kmh WNW 10.4 mph16.7 kmh 30.08 in1018.6 mb 0.00 in0.0 mm 0.00 in0.0 mm 0.04 in1.0 mm
06:15 PM 66.8°F19.3°C 61.5°F16.4°C 83% 7.7 mph WNW12.4 kmh WNW 12.2 mph19.6 kmh 30.08 in1018.6 mb 0.00 in0.0 mm 0.00 in0.0 mm 0.04 in1.0 mm
06:20 PM 66.5°F19.2°C 61.5°F16.4°C 84% 10.3 mph WNW16.6 kmh WNW 17.0 mph27.4 kmh 30.08 in1018.6 mb 0.00 in0.0 mm 0.00 in0.0 mm 0.04 in1.0 mm
06:25 PM 66.1°F18.9°C 61.1°F16.2°C 84% 10.4 mph WNW16.7 kmh WNW 17.0 mph27.4 kmh 30.08 in1018.6 mb 0.00 in0.0 mm 0.00 in0.0 mm 0.04 in1.0 mm
06:30 PM 65.9°F18.8°C 61.0°F16.1°C 84% 10.1 mph WNW16.3 kmh WNW 14.9 mph24.0 kmh 30.08 in1018.6 mb 0.00 in0.0 mm 0.00 in0.0 mm 0.04 in1.0 mm
06:35 PM 65.8°F18.8°C 60.8°F16.0°C 84% 9.7 mph W15.6 kmh W 13.4 mph21.6 kmh 30.08 in1018.6 mb 0.00 in0.0 mm 0.00 in0.0 mm 0.04 in1.0 mm
06:40 PM 65.6°F18.7°C 60.9°F16.1°C 85% 8.3 mph W13.4 kmh W 14.3 mph23.0 kmh 30.08 in1018.6 mb 0.00 in0.0 mm 0.00 in0.0 mm 0.04 in1.0 mm
06:45 PM 65.4°F18.6°C 60.8°F16.0°C 85% 8.2 mph W13.2 kmh W 14.3 mph23.0 kmh 30.08 in1018.6 mb 0.00 in0.0 mm 0.00 in0.0 mm 0.04 in1.0 mm
06:50 PM 65.2°F18.4°C 60.6°F15.9°C 85% 9.1 mph WNW14.6 kmh WNW 14.0 mph22.5 kmh 30.08 in1018.6 mb 0.00 in0.0 mm 0.00 in0.0 mm 0.04 in1.0 mm
06:55 PM 65.0°F18.3°C 60.1°F15.6°C 84% 8.8 mph WNW14.2 kmh WNW 11.6 mph18.7 kmh 30.08 in1018.6 mb 0.00 in0.0 mm 0.00 in0.0 mm 0.04 in1.0 mm
07:00 PM 64.8°F18.2°C 60.2°F15.7°C 85% 10.1 mph W16.3 kmh W 20.2 mph32.5 kmh 30.08 in1018.6 mb 0.00 in0.0 mm 0.00 in0.0 mm 0.04 in1.0 mm
07:05 PM 64.8°F18.2°C 60.2°F15.7°C 85% 8.5 mph W13.7 kmh W 20.2 mph32.5 kmh 30.08 in1018.6 mb 0.00 in0.0 mm 0.00 in0.0 mm 0.04 in1.0 mm
07:10 PM 64.8°F18.2°C 60.2°F15.7°C 85% 6.6 mph WNW10.6 kmh WNW 11.3 mph18.2 kmh 30.08 in1018.6 mb 0.00 in0.0 mm 0.00 in0.0 mm 0.04 in1.0 mm
07:15 PM 64.8°F18.2°C 60.2°F15.7°C 85% 8.2 mph WNW13.2 kmh WNW 11.3 mph18.2 kmh 30.08 in1018.6 mb 0.00 in0.0 mm 0.00 in0.0 mm 0.04 in1.0 mm
07:20 PM 64.7°F18.2°C 60.1°F15.6°C 85% 9.2 mph W14.8 kmh W 16.1 mph25.9 kmh 30.08 in1018.6 mb 0.00 in0.0 mm 0.00 in0.0 mm 0.04 in1.0 mm
07:25 PM 64.7°F18.2°C 60.1°F15.6°C 85% 8.9 mph WNW14.3 kmh WNW 16.1 mph25.9 kmh 30.08 in1018.6 mb 0.00 in0.0 mm 0.00 in0.0 mm 0.04 in1.0 mm
07:30 PM 64.7°F18.2°C 60.1°F15.6°C 85% 8.1 mph WNW13.0 kmh WNW 11.3 mph18.2 kmh 30.08 in1018.6 mb 0.00 in0.0 mm 0.00 in0.0 mm 0.04 in1.0 mm
07:35 PM 64.5°F18.1°C 59.9°F15.5°C 85% 9.8 mph WNW15.8 kmh WNW 13.1 mph21.1 kmh 30.08 in1018.6 mb 0.00 in0.0 mm 0.00 in0.0 mm 0.04 in1.0 mm
07:40 PM 64.3°F17.9°C 59.7°F15.4°C 85% 8.8 mph WNW14.2 kmh WNW 13.1 mph21.1 kmh 30.08 in1018.6 mb 0.00 in0.0 mm 0.00 in0.0 mm 0.04 in1.0 mm
07:45 PM 64.3°F17.9°C 59.7°F15.4°C 85% 6.7 mph W10.8 kmh W 13.1 mph21.1 kmh 30.08 in1018.6 mb 0.00 in0.0 mm 0.00 in0.0 mm 0.04 in1.0 mm
07:50 PM 64.1°F17.8°C 59.5°F15.3°C 85% 6.2 mph W10.0 kmh W 10.7 mph17.2 kmh 30.08 in1018.6 mb 0.00 in0.0 mm 0.00 in0.0 mm 0.04 in1.0 mm
07:55 PM 64.0°F17.8°C 59.3°F15.2°C 85% 8.1 mph W13.0 kmh W 11.6 mph18.7 kmh 30.08 in1018.6 mb 0.00 in0.0 mm 0.00 in0.0 mm 0.04 in1.0 mm
08:00 PM 64.0°F17.8°C 59.3°F15.2°C 85% 7.7 mph WNW12.4 kmh WNW 11.6 mph18.7 kmh 30.08 in1018.6 mb 0.00 in0.0 mm 0.00 in0.0 mm 0.04 in1.0 mm
08:05 PM 64.0°F17.8°C 59.3°F15.2°C 85% 6.4 mph WNW10.3 kmh WNW 7.7 mph12.4 kmh 30.08 in1018.6 mb 0.00 in0.0 mm 0.00 in0.0 mm 0.04 in1.0 mm
08:10 PM 64.0°F17.8°C 59.7°F15.4°C 86% 6.4 mph W10.3 kmh W 9.8 mph15.8 kmh 30.08 in1018.6 mb 0.00 in0.0 mm 0.00 in0.0 mm 0.04 in1.0 mm
08:15 PM 64.0°F17.8°C 59.7°F15.4°C 86% 6.8 mph W10.9 kmh W 9.8 mph15.8 kmh 30.08 in1018.6 mb 0.00 in0.0 mm 0.00 in0.0 mm 0.04 in1.0 mm
08:20 PM 64.0°F17.8°C 59.7°F15.4°C 86% 6.5 mph WNW10.5 kmh WNW 9.8 mph15.8 kmh 30.08 in1018.6 mb 0.00 in0.0 mm 0.00 in0.0 mm 0.04 in1.0 mm
08:25 PM 64.0°F17.8°C 59.7°F15.4°C 86% 5.4 mph NW8.7 kmh NW 8.0 mph12.9 kmh 30.08 in1018.6 mb 0.00 in0.0 mm 0.00 in0.0 mm 0.04 in1.0 mm
08:30 PM 64.0°F17.8°C 59.7°F15.4°C 86% 5.1 mph WNW8.2 kmh WNW 10.1 mph16.3 kmh 30.08 in1018.6 mb 0.00 in0.0 mm 0.00 in0.0 mm 0.04 in1.0 mm
08:35 PM 63.8°F17.7°C 59.2°F15.1°C 85% 5.5 mph W8.9 kmh W 10.1 mph16.3 kmh 30.08 in1018.6 mb 0.00 in0.0 mm 0.00 in0.0 mm 0.04 in1.0 mm
08:40 PM 63.8°F17.7°C 59.2°F15.1°C 85% 4.9 mph W7.9 kmh W 7.4 mph11.9 kmh 30.08 in1018.6 mb 0.00 in0.0 mm 0.00 in0.0 mm 0.04 in1.0 mm
08:45 PM 63.8°F17.7°C 59.2°F15.1°C 85% 5.8 mph W9.3 kmh W 10.4 mph16.7 kmh 30.08 in1018.6 mb 0.00 in0.0 mm 0.00 in0.0 mm 0.04 in1.0 mm
08:50 PM 63.8°F17.7°C 59.2°F15.1°C 85% 5.6 mph W9.0 kmh W 10.4 mph16.7 kmh 30.08 in1018.6 mb 0.00 in0.0 mm 0.00 in0.0 mm 0.04 in1.0 mm
08:55 PM 63.6°F17.6°C 59.0°F15.0°C 85% 4.0 mph WNW6.4 kmh WNW 7.1 mph11.4 kmh 30.08 in1018.6 mb 0.00 in0.0 mm 0.00 in0.0 mm 0.04 in1.0 mm
09:00 PM 63.6°F17.6°C 59.0°F15.0°C 85% 3.9 mph NW6.3 kmh NW 5.4 mph8.7 kmh 30.08 in1018.6 mb 0.00 in0.0 mm 0.00 in0.0 mm 0.04 in1.0 mm
09:05 PM 63.6°F17.6°C 59.0°F15.0°C 85% 4.0 mph WNW6.4 kmh WNW 5.7 mph9.2 kmh 30.08 in1018.6 mb 0.00 in0.0 mm 0.00 in0.0 mm 0.04 in1.0 mm
09:10 PM 63.6°F17.6°C 59.0°F15.0°C 85% 3.6 mph W5.8 kmh W 5.7 mph9.2 kmh 30.08 in1018.6 mb 0.00 in0.0 mm 0.00 in0.0 mm 0.04 in1.0 mm
09:15 PM 63.6°F17.6°C 59.0°F15.0°C 85% 4.2 mph WNW6.8 kmh WNW 8.0 mph12.9 kmh 30.08 in1018.6 mb 0.00 in0.0 mm 0.00 in0.0 mm 0.04 in1.0 mm
09:20 PM 63.4°F17.4°C 58.5°F14.7°C 84% 5.4 mph NW8.7 kmh NW 8.0 mph12.9 kmh 30.08 in1018.6 mb 0.00 in0.0 mm 0.00 in0.0 mm 0.04 in1.0 mm
09:25 PM 63.4°F17.4°C 58.5°F14.7°C 84% 4.8 mph WNW7.7 kmh WNW 8.6 mph13.8 kmh 30.08 in1018.6 mb 0.00 in0.0 mm 0.00 in0.0 mm 0.04 in1.0 mm
09:30 PM 63.4°F17.4°C 58.5°F14.7°C 84% 4.5 mph W7.2 kmh W 8.6 mph13.8 kmh 30.08 in1018.6 mb 0.00 in0.0 mm 0.00 in0.0 mm 0.04 in1.0 mm
09:40 PM 63.2°F17.3°C 58.3°F14.6°C 84% 3.0 mph NW4.8 kmh NW 4.5 mph7.2 kmh 30.08 in1018.6 mb 0.00 in0.0 mm 0.00 in0.0 mm 0.04 in1.0 mm
09:45 PM 63.2°F17.3°C 58.3°F14.6°C 84% 2.0 mph NW3.2 kmh NW 4.2 mph6.8 kmh 30.08 in1018.6 mb 0.00 in0.0 mm 0.00 in0.0 mm 0.04 in1.0 mm
09:50 PM 63.2°F17.3°C 58.3°F14.6°C 84% 2.9 mph NW4.7 kmh NW 5.7 mph9.2 kmh 30.08 in1018.6 mb 0.00 in0.0 mm 0.00 in0.0 mm 0.04 in1.0 mm
09:55 PM 63.2°F17.3°C 58.3°F14.6°C 84% 3.1 mph WNW5.0 kmh WNW 5.7 mph9.2 kmh 30.08 in1018.6 mb 0.00 in0.0 mm 0.00 in0.0 mm 0.04 in1.0 mm
10:00 PM 63.2°F17.3°C 58.3°F14.6°C 84% 2.7 mph WNW4.3 kmh WNW 4.2 mph6.8 kmh 30.08 in1018.6 mb 0.00 in0.0 mm 0.00 in0.0 mm 0.04 in1.0 mm
10:05 PM 63.2°F17.3°C 58.6°F14.8°C 85% 3.1 mph WNW5.0 kmh WNW 4.5 mph7.2 kmh 30.08 in1018.6 mb 0.00 in0.0 mm 0.00 in0.0 mm 0.04 in1.0 mm
10:10 PM 63.2°F17.3°C 58.6°F14.8°C 85% 2.0 mph WNW3.2 kmh WNW 4.5 mph7.2 kmh 30.08 in1018.6 mb 0.00 in0.0 mm 0.00 in0.0 mm 0.04 in1.0 mm
10:15 PM 63.2°F17.3°C 58.6°F14.8°C 85% 1.2 mph W1.9 kmh W 2.7 mph4.3 kmh 30.08 in1018.6 mb 0.00 in0.0 mm 0.00 in0.0 mm 0.04 in1.0 mm
10:20 PM 63.0°F17.2°C 58.5°F14.7°C 85% 2.5 mph W4.0 kmh W 4.5 mph7.2 kmh 30.08 in1018.6 mb 0.00 in0.0 mm 0.00 in0.0 mm 0.04 in1.0 mm
10:25 PM 63.0°F17.2°C 58.8°F14.9°C 86% 3.1 mph W5.0 kmh W 4.5 mph7.2 kmh 30.08 in1018.6 mb 0.00 in0.0 mm 0.00 in0.0 mm 0.04 in1.0 mm
10:30 PM 63.0°F17.2°C 58.8°F14.9°C 86% 2.7 mph WNW4.3 kmh WNW 4.2 mph6.8 kmh 30.08 in1018.6 mb 0.00 in0.0 mm 0.00 in0.0 mm 0.04 in1.0 mm
10:35 PM 63.0°F17.2°C 58.8°F14.9°C 86% 2.3 mph NW3.7 kmh NW 4.2 mph6.8 kmh 30.08 in1018.6 mb 0.00 in0.0 mm 0.00 in0.0 mm 0.04 in1.0 mm
10:40 PM 63.0°F17.2°C 58.8°F14.9°C 86% 1.7 mph NW2.7 kmh NW 3.6 mph5.8 kmh 30.08 in1018.6 mb 0.00 in0.0 mm 0.00 in0.0 mm 0.04 in1.0 mm
10:45 PM 63.0°F17.2°C 58.8°F14.9°C 86% 1.4 mph WNW2.3 kmh WNW 3.3 mph5.3 kmh 30.08 in1018.6 mb 0.00 in0.0 mm 0.00 in0.0 mm 0.04 in1.0 mm
10:50 PM 63.0°F17.2°C 58.8°F14.9°C 86% 1.2 mph WNW1.9 kmh WNW 3.3 mph5.3 kmh 30.08 in1018.6 mb 0.00 in0.0 mm 0.00 in0.0 mm 0.04 in1.0 mm
10:55 PM 63.0°F17.2°C 58.8°F14.9°C 86% 1.0 mph W1.6 kmh W 3.9 mph6.3 kmh 30.08 in1018.6 mb 0.00 in0.0 mm 0.00 in0.0 mm 0.04 in1.0 mm
11:00 PM 63.0°F17.2°C 59.1°F15.1°C 87% 0.9 mph W1.4 kmh W 3.9 mph6.3 kmh 30.08 in1018.6 mb 0.00 in0.0 mm 0.00 in0.0 mm 0.04 in1.0 mm
11:05 PM 63.0°F17.2°C 59.1°F15.1°C 87% 0.6 mph W1.0 kmh W 3.9 mph6.3 kmh 30.08 in1018.6 mb 0.00 in0.0 mm 0.00 in0.0 mm 0.04 in1.0 mm
11:10 PM 63.0°F17.2°C 59.1°F15.1°C 87% 0.8 mph NW1.3 kmh NW 3.3 mph5.3 kmh 30.08 in1018.6 mb 0.00 in0.0 mm 0.00 in0.0 mm 0.04 in1.0 mm
11:15 PM 63.0°F17.2°C 59.1°F15.1°C 87% 1.9 mph NW3.1 kmh NW 5.1 mph8.2 kmh 30.08 in1018.6 mb 0.00 in0.0 mm 0.00 in0.0 mm 0.04 in1.0 mm
11:20 PM 63.0°F17.2°C 59.1°F15.1°C 87% 2.2 mph NW3.5 kmh NW 5.1 mph8.2 kmh 30.08 in1018.6 mb 0.00 in0.0 mm 0.00 in0.0 mm 0.04 in1.0 mm
11:25 PM 63.0°F17.2°C 59.1°F15.1°C 87% 2.4 mph WNW3.9 kmh WNW 4.8 mph7.7 kmh 30.08 in1018.6 mb 0.00 in0.0 mm 0.00 in0.0 mm 0.04 in1.0 mm
11:30 PM 63.0°F17.2°C 59.4°F15.2°C 88% 2.5 mph WNW4.0 kmh WNW 4.8 mph7.7 kmh 30.08 in1018.6 mb 0.00 in0.0 mm 0.00 in0.0 mm 0.04 in1.0 mm
11:35 PM 63.0°F17.2°C 59.4°F15.2°C 88% 2.0 mph NW3.2 kmh NW 3.9 mph6.3 kmh 30.08 in1018.6 mb 0.00 in0.0 mm 0.00 in0.0 mm 0.04 in1.0 mm
11:40 PM 63.0°F17.2°C 59.4°F15.2°C 88% 1.8 mph WNW2.9 kmh WNW 3.9 mph6.3 kmh 30.08 in1018.6 mb 0.00 in0.0 mm 0.00 in0.0 mm 0.04 in1.0 mm
11:45 PM 63.0°F17.2°C 59.4°F15.2°C 88% 1.7 mph WNW2.7 kmh WNW 3.6 mph5.8 kmh 30.08 in1018.6 mb 0.00 in0.0 mm 0.00 in0.0 mm 0.04 in1.0 mm
11:50 PM 63.0°F17.2°C 59.4°F15.2°C 88% 2.3 mph W3.7 kmh W 3.6 mph5.8 kmh 30.08 in1018.6 mb 0.00 in0.0 mm 0.00 in0.0 mm 0.04 in1.0 mm
11:55 PM 63.0°F17.2°C 59.4°F15.2°C 88% 2.7 mph W4.3 kmh W 3.6 mph5.8 kmh 30.08 in1018.6 mb 0.00 in0.0 mm 0.00 in0.0 mm 0.04 in1.0 mm